createdAt,value
2022-11-08T00:01:51.358Z,101094.63
2022-11-08T00:04:23.655Z,101088.47
2022-11-08T00:07:14.053Z,101092.00
2022-11-08T00:10:04.464Z,101092.13
2022-11-08T00:12:54.822Z,101098.25
2022-11-08T00:15:26.800Z,101093.88
2022-11-08T00:17:58.756Z,101099.03
2022-11-08T00:20:30.833Z,101099.06
2022-11-08T00:23:04.048Z,101100.84
2022-11-08T00:25:36.007Z,101093.78
2022-11-08T00:28:07.914Z,101099.88
2022-11-08T00:30:39.855Z,101091.88
2022-11-08T00:33:11.744Z,101097.13
2022-11-08T00:35:43.703Z,101094.41
2022-11-08T00:38:15.995Z,101092.69
2022-11-08T00:40:48.221Z,101094.44
2022-11-08T00:43:20.146Z,101086.53
2022-11-08T00:45:52.069Z,101081.31
2022-11-08T00:48:24.044Z,101083.97
2022-11-08T00:50:55.943Z,101087.41
2022-11-08T00:53:27.945Z,101082.22
2022-11-08T00:56:02.024Z,101069.00
2022-11-08T00:58:34.461Z,101072.50
2022-11-08T01:01:13.007Z,101074.34
2022-11-08T01:03:46.091Z,101070.69
2022-11-08T01:06:20.317Z,101067.13
2022-11-08T01:08:52.475Z,101064.41
2022-11-08T01:11:26.444Z,101056.63
2022-11-08T01:14:00.459Z,101066.28
2022-11-08T01:16:34.361Z,101067.13
2022-11-08T01:19:06.703Z,101062.75
2022-11-08T01:21:38.678Z,101064.47
2022-11-08T01:24:10.627Z,101061.00
2022-11-08T01:26:42.624Z,101056.59
2022-11-08T01:29:14.565Z,101061.03
2022-11-08T01:31:46.493Z,101064.66
2022-11-08T01:34:18.446Z,101058.75
2022-11-08T01:36:50.399Z,101060.59
2022-11-08T01:39:22.327Z,101060.63
2022-11-08T01:41:54.239Z,101058.75
2022-11-08T01:44:26.143Z,101063.19
2022-11-08T01:46:58.054Z,101065.81
2022-11-08T01:49:40.226Z,101067.72
2022-11-08T01:52:20.137Z,101066.75
2022-11-08T01:55:22.881Z,101064.22
2022-11-08T01:58:06.859Z,101058.97
2022-11-08T02:00:40.073Z,101060.72
2022-11-08T02:03:16.868Z,101063.44
2022-11-08T02:05:49.015Z,101062.66
2022-11-08T02:08:25.705Z,101061.00
2022-11-08T02:10:58.658Z,101059.34
2022-11-08T02:13:32.909Z,101060.31
2022-11-08T02:16:16.494Z,101065.63
2022-11-08T02:18:49.108Z,101062.13
2022-11-08T02:21:30.467Z,101065.56
2022-11-08T02:24:09.059Z,101060.47
2022-11-08T02:26:41.539Z,101054.38
2022-11-08T02:29:35.739Z,101051.78
2022-11-08T02:32:08.094Z,101048.38
2022-11-08T02:34:49.751Z,101051.75
2022-11-08T02:37:24.077Z,101050.06
2022-11-08T02:39:56.080Z,101050.16
2022-11-08T02:42:28.058Z,101045.00
2022-11-08T02:45:00.016Z,101051.94
2022-11-08T02:47:31.922Z,101051.13
2022-11-08T02:50:04.242Z,101048.53
2022-11-08T02:52:36.155Z,101045.94
2022-11-08T02:55:08.260Z,101045.03
2022-11-08T02:57:40.190Z,101037.16
2022-11-08T03:00:13.348Z,101045.03
2022-11-08T03:02:45.321Z,101051.16
2022-11-08T03:05:18.448Z,101053.94
2022-11-08T03:07:50.790Z,101051.31
2022-11-08T03:10:24.888Z,101049.56
2022-11-08T03:13:03.100Z,101043.47
2022-11-08T03:15:35.116Z,101044.44
2022-11-08T03:18:07.235Z,101053.16
2022-11-08T03:20:39.260Z,101044.47
2022-11-08T03:23:11.212Z,101051.41
2022-11-08T03:25:43.166Z,101040.16
2022-11-08T03:28:19.120Z,101040.22
2022-11-08T03:30:53.775Z,101036.72
2022-11-08T03:33:26.247Z,101035.81
2022-11-08T03:35:58.157Z,101034.94
2022-11-08T03:38:30.056Z,101032.28
2022-11-08T03:41:01.973Z,101035.69
2022-11-08T03:43:33.919Z,101029.63
2022-11-08T03:46:05.900Z,101034.91
2022-11-08T03:48:37.815Z,101031.56
2022-11-08T03:51:09.878Z,101022.88
2022-11-08T03:53:41.809Z,101027.22
2022-11-08T03:56:13.793Z,101031.53
2022-11-08T03:58:45.704Z,101031.59
2022-11-08T04:01:17.776Z,101033.34
2022-11-08T04:03:49.751Z,101030.78
2022-11-08T04:06:21.690Z,101029.13
2022-11-08T04:08:53.640Z,101021.28
2022-11-08T04:11:43.941Z,101020.38
2022-11-08T04:14:34.435Z,101023.00
2022-11-08T04:17:06.365Z,101034.31
2022-11-08T04:19:56.664Z,101030.00
2022-11-08T04:22:28.579Z,101028.28
2022-11-08T04:25:00.480Z,101025.66
2022-11-08T04:27:32.398Z,101027.41
2022-11-08T04:30:04.915Z,101028.28
2022-11-08T04:32:36.987Z,101029.22
2022-11-08T04:35:09.019Z,101026.50
2022-11-08T04:37:40.944Z,101016.91
2022-11-08T04:40:13.430Z,101021.25
2022-11-08T04:42:45.487Z,101021.25
2022-11-08T04:45:17.523Z,101011.66
2022-11-08T04:47:49.739Z,101015.16
2022-11-08T04:50:21.679Z,101010.75
2022-11-08T04:52:55.319Z,101007.28
2022-11-08T04:55:27.263Z,101004.66
2022-11-08T04:57:59.667Z,101007.25
2022-11-08T05:00:31.559Z,100997.69
2022-11-08T05:03:03.474Z,101001.28
2022-11-08T05:05:35.431Z,101002.13
2022-11-08T05:08:07.359Z,101003.84
2022-11-08T05:10:39.251Z,100995.97
2022-11-08T05:13:11.235Z,100998.63
2022-11-08T05:15:43.146Z,100996.91
2022-11-08T05:18:15.364Z,100999.47
2022-11-08T05:21:13.439Z,100989.88
2022-11-08T05:23:48.542Z,100989.00
2022-11-08T05:26:21.124Z,100980.25
2022-11-08T05:28:53.461Z,100983.81
2022-11-08T05:31:25.477Z,100978.59
2022-11-08T05:33:57.824Z,100977.78
2022-11-08T05:36:29.790Z,100980.44
2022-11-08T05:39:01.804Z,100971.72
2022-11-08T05:41:33.745Z,100967.34
2022-11-08T05:44:05.783Z,100970.91
2022-11-08T05:46:37.790Z,100967.34
2022-11-08T05:49:09.735Z,100968.16
2022-11-08T05:51:41.625Z,100967.28
2022-11-08T05:54:13.838Z,100965.59
2022-11-08T05:56:45.736Z,100964.72
2022-11-08T05:59:17.658Z,100969.09
2022-11-08T06:01:49.690Z,100963.81
2022-11-08T06:04:21.703Z,100964.69
2022-11-08T06:06:53.718Z,100958.59
2022-11-08T06:09:25.639Z,100948.16
2022-11-08T06:11:57.534Z,100953.44
2022-11-08T06:14:29.920Z,100950.00
2022-11-08T06:17:01.911Z,100954.44
2022-11-08T06:19:33.811Z,100959.66
2022-11-08T06:22:05.805Z,100955.34
2022-11-08T06:24:37.948Z,100953.59
2022-11-08T06:27:09.899Z,100953.63
2022-11-08T06:29:42.603Z,100950.97
2022-11-08T06:32:14.912Z,100950.09
2022-11-08T06:34:47.074Z,100951.88
2022-11-08T06:37:18.999Z,100956.34
2022-11-08T06:39:50.951Z,100958.09
2022-11-08T06:42:23.287Z,100957.19
2022-11-08T06:44:55.239Z,100956.44
2022-11-08T06:47:27.204Z,100953.81
2022-11-08T06:49:59.156Z,100946.91
2022-11-08T06:52:31.099Z,100948.59
2022-11-08T06:55:03.201Z,100954.72
2022-11-08T06:57:35.181Z,100946.88
2022-11-08T07:00:07.960Z,100943.31
2022-11-08T07:02:40.316Z,100950.34
2022-11-08T07:05:13.036Z,100945.03
2022-11-08T07:07:45.779Z,100947.78
2022-11-08T07:10:23.007Z,100952.06
2022-11-08T07:13:11.479Z,100942.44
2022-11-08T07:15:43.907Z,100944.13
2022-11-08T07:18:19.005Z,100937.09
2022-11-08T07:20:52.319Z,100930.09
2022-11-08T07:23:24.450Z,100926.56
2022-11-08T07:25:56.560Z,100930.88
2022-11-08T07:28:28.559Z,100928.25
2022-11-08T07:31:05.221Z,100922.03
2022-11-08T07:33:37.195Z,100915.81
2022-11-08T07:36:09.189Z,100922.81
2022-11-08T07:38:41.114Z,100918.38
2022-11-08T07:41:13.129Z,100910.44
2022-11-08T07:43:45.100Z,100908.88
2022-11-08T07:46:17.087Z,100921.91
2022-11-08T07:48:49.065Z,100929.75
2022-11-08T07:51:21.058Z,100925.41
2022-11-08T07:53:53.061Z,100920.22
2022-11-08T07:56:24.983Z,100920.06
2022-11-08T07:58:57.028Z,100918.19
2022-11-08T08:01:29.380Z,100899.84
2022-11-08T08:04:01.368Z,100904.03
2022-11-08T08:06:33.337Z,100899.78
2022-11-08T08:09:05.639Z,100890.16
2022-11-08T08:11:37.577Z,100890.91
2022-11-08T08:14:09.537Z,100889.38
2022-11-08T08:16:41.560Z,100896.25
2022-11-08T08:19:13.603Z,100904.00
2022-11-08T08:21:45.766Z,100889.97
2022-11-08T08:24:17.713Z,100883.69
2022-11-08T08:26:49.666Z,100884.69
2022-11-08T08:29:21.642Z,100885.31
2022-11-08T08:31:53.549Z,100881.97
2022-11-08T08:34:25.483Z,100884.53
2022-11-08T08:37:00.287Z,100882.59
2022-11-08T08:39:32.294Z,100882.63
2022-11-08T08:42:04.191Z,100867.72
2022-11-08T08:44:36.221Z,100871.09
2022-11-08T08:47:08.237Z,100877.78
2022-11-08T08:49:40.246Z,100874.09
2022-11-08T08:52:12.206Z,100861.53
2022-11-08T08:54:44.269Z,100859.69
2022-11-08T08:57:16.261Z,100855.19
2022-11-08T09:02:42.406Z,100843.16
2022-11-08T09:05:15.226Z,100836.97
2022-11-08T09:07:47.225Z,100836.84
2022-11-08T09:10:19.188Z,100838.59
2022-11-08T09:12:51.719Z,100835.72
2022-11-08T09:15:23.735Z,100834.91
2022-11-08T09:17:56.755Z,100826.00
2022-11-08T09:20:28.817Z,100828.63
2022-11-08T09:23:04.075Z,100825.09
2022-11-08T09:25:36.106Z,100825.66
2022-11-08T09:28:08.065Z,100821.19
2022-11-08T09:30:39.990Z,100832.53
2022-11-08T09:33:12.005Z,100816.81
2022-11-08T09:35:46.295Z,100827.47
2022-11-08T09:38:18.729Z,100823.13
2022-11-08T09:41:15.299Z,100810.72
2022-11-08T09:44:07.137Z,100817.00
2022-11-08T09:46:51.427Z,100812.91
2022-11-08T09:49:41.676Z,100805.56
2022-11-08T09:52:24.648Z,100814.38
2022-11-08T09:55:18.059Z,100803.28
2022-11-08T09:58:12.927Z,100793.34
2022-11-08T10:00:45.954Z,100793.94
2022-11-08T10:03:19.350Z,100790.03
2022-11-08T10:06:03.427Z,100790.16
2022-11-08T10:09:09.215Z,100786.28
2022-11-08T10:11:59.740Z,100786.16
2022-11-08T10:15:19.785Z,100778.44
2022-11-08T10:18:22.759Z,100785.53
2022-11-08T10:21:04.026Z,100774.06
2022-11-08T10:23:45.536Z,100778.19
2022-11-08T10:26:30.995Z,100761.22
2022-11-08T10:29:14.309Z,100761.69
2022-11-08T10:31:51.399Z,100768.78
2022-11-08T10:34:28.816Z,100754.75
2022-11-08T10:37:06.750Z,100745.72
2022-11-08T10:39:45.816Z,100754.41
2022-11-08T10:42:34.971Z,100754.69
2022-11-08T10:45:10.168Z,100742.22
2022-11-08T10:47:45.992Z,100748.31
2022-11-08T10:50:21.790Z,100747.03
2022-11-08T10:53:04.135Z,100742.97
2022-11-08T10:55:47.696Z,100743.56
2022-11-08T10:58:39.130Z,100746.78
2022-11-08T11:01:22.718Z,100748.22
2022-11-08T11:03:54.704Z,100738.19
2022-11-08T11:06:30.870Z,100737.47
2022-11-08T11:09:19.316Z,100726.13
2022-11-08T11:12:09.267Z,100719.44
2022-11-08T11:14:41.253Z,100707.25
2022-11-08T11:17:18.959Z,100694.09
2022-11-08T11:19:56.881Z,100692.94
2022-11-08T11:22:35.711Z,100686.16
2022-11-08T11:25:16.870Z,100688.16
2022-11-08T11:27:54.850Z,100687.66
2022-11-08T11:30:33.448Z,100699.56
2022-11-08T11:33:23.799Z,100693.44
2022-11-08T11:35:58.528Z,100695.22
2022-11-08T11:39:04.909Z,100682.22
2022-11-08T11:42:43.684Z,100696.31
2022-11-08T11:45:13.172Z,100682.75
2022-11-08T11:47:56.610Z,100688.50
2022-11-08T11:50:38.336Z,100683.50
2022-11-08T11:53:18.096Z,100685.22
2022-11-08T11:56:45.949Z,100677.41
2022-11-08T11:59:49.790Z,100665.81
2022-11-08T12:03:02.913Z,100671.16
2022-11-08T12:06:28.514Z,100679.94
2022-11-08T12:09:25.303Z,100671.94
2022-11-08T12:12:49.228Z,100662.41
2022-11-08T12:15:51.308Z,100669.59
2022-11-08T12:18:56.963Z,100671.16
2022-11-08T12:21:59.507Z,100672.19
2022-11-08T12:25:07.755Z,100672.97
2022-11-08T12:27:52.968Z,100669.41
2022-11-08T12:30:51.492Z,100662.00
2022-11-08T12:33:47.454Z,100667.03
2022-11-08T12:36:53.923Z,100651.34
2022-11-08T12:39:45.490Z,100652.09
2022-11-08T12:42:38.592Z,100649.13
2022-11-08T12:45:36.009Z,100639.28
2022-11-08T12:48:28.957Z,100643.94
2022-11-08T12:51:04.388Z,100639.28
2022-11-08T12:54:20.113Z,100638.28
2022-11-08T12:56:54.671Z,100638.88
2022-11-08T12:59:39.910Z,100644.53
2022-11-08T13:02:25.266Z,100637.91
2022-11-08T13:05:09.675Z,100640.59
2022-11-08T13:07:57.527Z,100640.31
2022-11-08T13:10:59.179Z,100631.44
2022-11-08T13:13:53.211Z,100637.41
2022-11-08T13:16:39.262Z,100636.53
2022-11-08T13:19:46.550Z,100632.28
2022-11-08T13:22:33.242Z,100627.97
2022-11-08T13:25:14.431Z,100617.91
2022-11-08T13:27:48.477Z,100625.78
2022-11-08T13:30:20.286Z,100623.63
2022-11-08T13:33:21.854Z,100629.59
2022-11-08T13:36:39.867Z,100625.22
2022-11-08T13:40:18.220Z,100621.31
2022-11-08T13:42:50.073Z,100615.72
2022-11-08T13:45:28.656Z,100625.69
2022-11-08T13:48:03.542Z,100620.88
2022-11-08T13:51:25.124Z,100621.09
2022-11-08T13:54:02.809Z,100616.69
2022-11-08T13:56:52.121Z,100623.09
2022-11-08T13:59:33.356Z,100620.00
2022-11-08T14:02:25.548Z,100619.44
2022-11-08T14:05:23.115Z,100618.72
2022-11-08T14:08:15.379Z,100624.16
2022-11-08T14:11:27.528Z,100621.63
2022-11-08T14:14:24.297Z,100619.44
2022-11-08T14:17:28.122Z,100607.56
2022-11-08T14:20:37.207Z,100606.66
2022-11-08T14:23:29.613Z,100611.28
2022-11-08T14:26:16.491Z,100593.28
2022-11-08T14:28:50.291Z,100572.28
2022-11-08T14:31:35.175Z,100572.25
2022-11-08T14:34:31.027Z,100581.19
2022-11-08T14:37:11.883Z,100587.22
2022-11-08T14:39:46.631Z,100580.09
2022-11-08T14:42:25.241Z,100579.91
2022-11-08T14:45:00.660Z,100580.22
2022-11-08T14:47:33.070Z,100575.53
2022-11-08T14:50:23.571Z,100577.03
2022-11-08T14:53:18.885Z,100571.88
2022-11-08T14:56:15.753Z,100578.47
2022-11-08T14:58:50.306Z,100578.44
2022-11-08T15:01:27.315Z,100587.31
2022-11-08T15:04:05.423Z,100598.13
2022-11-08T15:06:42.861Z,100602.75
2022-11-08T15:09:34.928Z,100593.63
2022-11-08T15:12:20.952Z,100578.19
2022-11-08T15:15:00.251Z,100565.06
2022-11-08T15:17:39.117Z,100559.03
2022-11-08T15:20:11.141Z,100560.28
2022-11-08T15:22:46.203Z,100555.75
2022-11-08T15:25:34.878Z,100565.56
2022-11-08T15:28:22.299Z,100575.34
2022-11-08T15:31:00.220Z,100588.28
2022-11-08T15:33:39.786Z,100571.50
2022-11-08T15:36:16.883Z,100582.13
2022-11-08T15:38:49.635Z,100578.13
2022-11-08T15:41:41.033Z,100573.84
2022-11-08T15:44:24.297Z,100563.41
2022-11-08T15:46:56.845Z,100561.91
2022-11-08T15:49:30.680Z,100572.78
2022-11-08T15:52:03.730Z,100575.38
2022-11-08T15:54:35.679Z,100579.88
2022-11-08T15:57:08.177Z,100577.28
2022-11-08T15:59:40.170Z,100570.56
2022-11-08T16:02:14.673Z,100574.81
2022-11-08T16:04:46.601Z,100560.97
2022-11-08T16:07:18.607Z,100570.56
2022-11-08T16:09:50.634Z,100567.06
2022-11-08T16:12:22.616Z,100566.00
2022-11-08T16:14:57.957Z,100563.44
2022-11-08T16:17:29.947Z,100564.19
2022-11-08T16:20:01.918Z,100569.69
2022-11-08T16:22:34.144Z,100562.75
2022-11-08T16:25:06.362Z,100570.03
2022-11-08T16:27:38.491Z,100571.75
2022-11-08T16:30:15.758Z,100570.66
2022-11-08T16:32:47.913Z,100566.41
2022-11-08T16:35:20.077Z,100566.47
2022-11-08T16:37:52.672Z,100558.34
2022-11-08T16:40:25.917Z,100562.66
2022-11-08T16:42:57.953Z,100567.44
2022-11-08T16:46:03.133Z,100571.25
2022-11-08T16:48:27.485Z,100578.00
2022-11-08T16:51:05.722Z,100572.63
2022-11-08T16:53:37.763Z,100569.28
2022-11-08T16:56:09.775Z,100578.09
2022-11-08T16:58:42.545Z,100570.16
2022-11-08T17:01:19.696Z,100569.25
2022-11-08T17:03:51.691Z,100579.94
2022-11-08T17:06:23.689Z,100578.97
2022-11-08T17:08:55.678Z,100571.97
2022-11-08T17:11:27.645Z,100576.94
2022-11-08T17:13:59.589Z,100577.59
2022-11-08T17:16:31.563Z,100576.69
2022-11-08T17:19:04.762Z,100575.84
2022-11-08T17:21:45.366Z,100577.50
2022-11-08T17:24:22.005Z,100582.63
2022-11-08T17:26:54.212Z,100584.44
2022-11-08T17:29:26.259Z,100581.13
2022-11-08T17:31:58.334Z,100581.09
2022-11-08T17:34:30.402Z,100581.09
2022-11-08T17:37:02.405Z,100588.19
2022-11-08T17:39:34.374Z,100581.16
2022-11-08T17:42:06.475Z,100581.84
2022-11-08T17:44:38.649Z,100585.50
2022-11-08T17:47:10.610Z,100593.34
2022-11-08T17:49:44.222Z,100587.09
2022-11-08T17:52:16.846Z,100589.75
2022-11-08T17:54:52.815Z,100587.03
2022-11-08T17:57:25.139Z,100595.06
2022-11-08T17:59:57.255Z,100594.97
2022-11-08T18:02:29.384Z,100596.88
2022-11-08T18:05:01.427Z,100604.69
2022-11-08T18:07:33.403Z,100602.16
2022-11-08T18:10:07.127Z,100594.31
2022-11-08T18:12:39.125Z,100597.94
2022-11-08T18:15:11.416Z,100600.47
2022-11-08T18:17:43.363Z,100607.53
2022-11-08T18:20:15.280Z,100601.31
2022-11-08T18:22:50.366Z,100602.47
2022-11-08T18:25:22.317Z,100602.44
2022-11-08T18:27:54.451Z,100606.75
2022-11-08T18:30:26.455Z,100599.59
2022-11-08T18:32:58.610Z,100607.63
2022-11-08T18:35:30.541Z,100597.94
2022-11-08T18:38:02.566Z,100605.94
2022-11-08T18:40:34.639Z,100602.53
2022-11-08T18:43:07.076Z,100598.25
2022-11-08T18:45:39.453Z,100596.63
2022-11-08T18:48:11.527Z,100604.63
2022-11-08T18:50:43.430Z,100605.66
2022-11-08T18:53:15.640Z,100608.25
2022-11-08T18:55:48.524Z,100604.69
2022-11-08T18:58:20.610Z,100597.56
2022-11-08T19:00:56.141Z,100602.94
2022-11-08T19:03:29.041Z,100598.72
2022-11-08T19:06:01.009Z,100599.41
2022-11-08T19:08:34.184Z,100600.22
2022-11-08T19:11:12.060Z,100598.44
2022-11-08T19:13:44.020Z,100605.59
2022-11-08T19:16:20.322Z,100601.16
2022-11-08T19:18:52.271Z,100598.59
2022-11-08T19:21:26.955Z,100592.50
2022-11-08T19:23:59.838Z,100595.97
2022-11-08T19:26:31.980Z,100597.78
2022-11-08T19:29:04.821Z,100593.53
2022-11-08T19:31:37.013Z,100595.44
2022-11-08T19:34:09.636Z,100596.47
2022-11-08T19:36:43.678Z,100596.41
2022-11-08T19:39:16.100Z,100597.06
2022-11-08T19:41:48.014Z,100597.03
2022-11-08T19:44:20.720Z,100590.91
2022-11-08T19:46:52.756Z,100602.31
2022-11-08T19:49:26.452Z,100607.47
2022-11-08T19:51:58.389Z,100605.75
2022-11-08T19:54:30.868Z,100603.09
2022-11-08T19:57:04.534Z,100606.78
2022-11-08T19:59:37.299Z,100606.69
2022-11-08T20:02:09.663Z,100604.16
2022-11-08T20:04:41.792Z,100616.44
2022-11-08T20:07:14.874Z,100611.16
2022-11-08T20:09:46.909Z,100614.97
2022-11-08T20:12:18.823Z,100608.81
2022-11-08T20:14:50.845Z,100615.75
2022-11-08T20:17:22.782Z,100605.13
2022-11-08T20:19:54.704Z,100613.97
2022-11-08T20:22:26.687Z,100619.13
2022-11-08T20:24:58.595Z,100612.25
2022-11-08T20:27:30.585Z,100624.47
2022-11-08T20:30:02.533Z,100617.59
2022-11-08T20:32:34.517Z,100617.56
2022-11-08T20:35:08.625Z,100626.19
2022-11-08T20:37:40.723Z,100625.25
2022-11-08T20:40:14.282Z,100622.81
2022-11-08T20:42:46.255Z,100628.88
2022-11-08T20:45:18.242Z,100618.59
2022-11-08T20:47:50.162Z,100627.22
2022-11-08T20:50:22.203Z,100622.97
2022-11-08T20:52:54.171Z,100619.44
2022-11-08T20:55:27.367Z,100619.44
2022-11-08T20:57:59.318Z,100622.13
2022-11-08T21:00:56.789Z,100615.13
2022-11-08T21:03:24.524Z,100636.19
2022-11-08T21:05:59.757Z,100636.25
2022-11-08T21:11:24.897Z,100634.56
2022-11-08T21:13:56.820Z,100631.16
2022-11-08T21:16:30.869Z,100632.84
2022-11-08T21:19:05.652Z,100632.84
2022-11-08T21:21:37.716Z,100631.25
2022-11-08T21:24:09.797Z,100625.97
2022-11-08T21:26:41.706Z,100629.59
2022-11-08T21:29:13.699Z,100623.38
2022-11-08T21:31:45.744Z,100630.38
2022-11-08T21:34:17.618Z,100628.75
2022-11-08T21:36:49.556Z,100632.28
2022-11-08T21:39:21.446Z,100636.97
2022-11-08T21:41:53.622Z,100630.78
2022-11-08T21:44:25.520Z,100630.94
2022-11-08T21:46:57.421Z,100636.34
2022-11-08T21:49:29.308Z,100635.53
2022-11-08T21:52:02.336Z,100632.72
2022-11-08T21:54:34.351Z,100627.44
2022-11-08T21:57:06.273Z,100635.50
2022-11-08T21:59:38.236Z,100639.97
2022-11-08T22:02:10.679Z,100648.75
2022-11-08T22:04:42.560Z,100638.09
2022-11-08T22:07:14.593Z,100641.56
2022-11-08T22:09:47.077Z,100637.25
2022-11-08T22:12:21.949Z,100639.03
2022-11-08T22:14:53.911Z,100636.34
2022-11-08T22:17:25.948Z,100638.84
2022-11-08T22:19:57.944Z,100638.69
2022-11-08T22:22:29.911Z,100642.56
2022-11-08T22:25:01.944Z,100638.88
2022-11-08T22:27:33.959Z,100637.06
2022-11-08T22:30:06.576Z,100638.75
2022-11-08T22:32:38.710Z,100640.56
2022-11-08T22:35:10.635Z,100638.59
2022-11-08T22:37:42.698Z,100637.78
2022-11-08T22:40:16.438Z,100630.84
2022-11-08T22:42:48.508Z,100632.78
2022-11-08T22:45:20.480Z,100633.47
2022-11-08T22:47:52.401Z,100635.44
2022-11-08T22:50:24.377Z,100631.78
2022-11-08T22:52:56.302Z,100631.72
2022-11-08T22:55:28.424Z,100635.34
2022-11-08T22:58:00.376Z,100634.63
2022-11-08T23:00:32.308Z,100633.88
2022-11-08T23:03:04.376Z,100632.94
2022-11-08T23:05:36.494Z,100628.47
2022-11-08T23:08:08.617Z,100640.75
2022-11-08T23:10:58.741Z,100638.13
2022-11-08T23:13:49.303Z,100635.38
2022-11-08T23:16:37.883Z,100632.53
2022-11-08T23:19:33.795Z,100628.16
2022-11-08T23:22:31.581Z,100637.72
2022-11-08T23:25:04.425Z,100641.88
2022-11-08T23:27:54.748Z,100638.31
2022-11-08T23:30:45.322Z,100633.72
2022-11-08T23:33:17.555Z,100637.41
2022-11-08T23:36:11.978Z,100635.63
2022-11-08T23:38:44.453Z,100631.06
2022-11-08T23:41:35.257Z,100628.19
2022-11-08T23:44:25.443Z,100623.81
2022-11-08T23:47:00.414Z,100617.56
2022-11-08T23:49:32.322Z,100626.69
2022-11-08T23:52:04.440Z,100627.69
2022-11-08T23:54:36.355Z,100626.88
2022-11-08T23:57:08.363Z,100628.69
2022-11-08T23:59:40.362Z,100621.69
